Abbotsford, British Columbia

8:03 AM PST on December 10, 2016 (GMT -0800)
Abbotsford | | Change Station

Elev 194 ft 49.03 °N, 122.38 °W | Updated 1 hour ago

Mostly Cloudy
Mostly Cloudy
25 °F
Feels Like 25 °F
N
0
Wind Variable Wind from North

Today
High -- | Low -- °F
--% Chance of Precip.
Yesterday
High -- | Low -- °F
Precip. -- in
Pressure 29.85 in
Visibility 10.0 miles
Clouds Scattered Clouds 5000 ft
Mostly Cloudy 5500 ft
Dew Point 23 °F
Humidity 93%
Rainfall 0.00 in
Snow Depth Not available.
7:53 AM 4:11 PM
Waxing Gibbous, 84% visible
METAR CYXX 101500Z 00000KT 10SM SCT050 BKN055 M04/M05 A2984 RMK SC3SC3 SLP108
Pressure 29.85 in
Visibility 10.0 miles
Clouds Scattered Clouds 5000 ft
Mostly Cloudy 5500 ft
Dew Point 23 °F
Humidity 93%
Rainfall 0.00 in
Snow Depth Not available.
7:53 AM 4:11 PM
Waxing Gibbous, 84% visible
METAR CYXX 101500Z 00000KT 10SM SCT050 BKN055 M04/M05 A2984 RMK SC3SC3 SLP108

10-Day Weather Forecast

Almanac

Astronomy

Dec. 10, 2016 Rise Set
Actual Time
Civil Twilight
Nautical Twilight
Astronomical Twilight
Moon
Length of Visible Light
Length of Day
Tomorrow will be .
, % of the Moon is Illuminated

Today's Extremes

Country Highs Country Lows

Community

WunderPhotos

Upload Photos

1,956,569 photos uploaded!

WunderBlog® & News

Nearby

Air Quality

  Air Quality AQ Index Pollutant
Not available.

Snow Depth

Station Depth Elevation

Earthquake Activity

City Distance Mag. Time & Date
Minimum magnitude displayed is 2.5.

Coastal Water Temperatures

Place Temperature

Stations

Nearby Weather Stations

Station Location Temp. Windchill Dew Point Humidity Wind Precip. Elev Updated Type
                   

Watches & Warnings

There are currently no watches in effect.